PWSweather.com
Personal Weather Stations
Station Observations
METEACHIET
Pas De Calais, AchietLeGrandFR

Pas De CalaisAchietLeGrandFR

Lat: 50.1302778, Lon: 2.78333333

Elevation: 406.8

Station Type: Davis VP2

http://meteo-achiet.shost.ca/index.php

Latest ConditionsUpdated 7:50:01 PM GMT+01:01 Tuesday, Nov 12, 2019
Currently Today's Max Today's Min Today's Average
Temperature 38.8°F3.8°C 43.3°F6.3°C 37.6°F3.1°C 39.7°F4.3°C
Dew Point 36.4°F2.4°C 40.6°F4.8°C 36.3°F2.4°C 37.8°F3.2°C
Winds 2.0 mph SW3.2 kmh SW 5.0 mph -8.0 kmh - - 2.6 mph 4.2 kmh
Wind Gusts 6.0 mph9.7 kmh 14.0 mph22.5 kmh - -
Humidity 91% 96% 86% 93%
Pressure 29.54 in1000.3 mb 29.66 in1004.4 mb 29.53 in1000.0 mb -
Precipitation - 0.21 in5.3 mm - -
Hour Temp Dew Point Humidity Winds Wind Gusts Pressure Precip Precip Rate Daily Precip Total
07:50 PM 38.8°F3.8°C 36.4°F2.4°C 91% 2.0 mph SW3.2 kmh SW 6.0 mph9.7 kmh 29.54 in1000.3 mb 0.00 in0.0 mm 0.00 in0.0 mm 0.21 in5.3 mm
07:40 PM 38.8°F3.8°C 36.4°F2.4°C 91% 2.0 mph SW3.2 kmh SW 6.0 mph9.7 kmh 29.53 in1000.0 mb 0.00 in0.0 mm 0.00 in0.0 mm 0.21 in5.3 mm
07:30 PM 38.8°F3.8°C 36.4°F2.4°C 91% 2.0 mph SSW3.2 kmh SSW 6.0 mph9.7 kmh 29.54 in1000.3 mb 0.00 in0.0 mm 0.00 in0.0 mm 0.21 in5.3 mm
07:20 PM 38.8°F3.8°C 36.4°F2.4°C 91% 2.0 mph SW3.2 kmh SW 7.0 mph11.3 kmh 29.54 in1000.3 mb 0.00 in0.0 mm 0.00 in0.0 mm 0.21 in5.3 mm
07:10 PM 39.0°F3.9°C 36.3°F2.4°C 90% 2.0 mph SSW3.2 kmh SSW 7.0 mph11.3 kmh 29.54 in1000.3 mb 0.00 in0.0 mm 0.00 in0.0 mm 0.21 in5.3 mm
07:00 PM 39.4°F4.1°C 36.7°F2.6°C 90% 2.0 mph SW3.2 kmh SW 8.0 mph12.9 kmh 29.54 in1000.3 mb 0.00 in0.0 mm 0.00 in0.0 mm 0.21 in5.3 mm
06:50 PM 39.6°F4.2°C 36.9°F2.7°C 90% 3.0 mph WSW4.8 kmh WSW 8.0 mph12.9 kmh 29.54 in1000.3 mb 0.00 in0.0 mm 0.00 in0.0 mm 0.21 in5.3 mm
06:40 PM 39.7°F4.3°C 37.0°F2.8°C 90% 2.0 mph SW3.2 kmh SW 6.0 mph9.7 kmh 29.54 in1000.3 mb 0.00 in0.0 mm 0.00 in0.0 mm 0.21 in5.3 mm
06:30 PM 39.9°F4.4°C 37.2°F2.9°C 90% 2.0 mph SSE3.2 kmh SSE 5.0 mph8.0 kmh 29.55 in1000.7 mb 0.00 in0.0 mm 0.00 in0.0 mm 0.21 in5.3 mm
06:20 PM 40.1°F4.5°C 37.1°F2.8°C 89% 2.0 mph SSW3.2 kmh SSW 5.0 mph8.0 kmh 29.55 in1000.7 mb 0.00 in0.0 mm 0.00 in0.0 mm 0.21 in5.3 mm
06:10 PM 40.3°F4.6°C 37.3°F2.9°C 89% 2.0 mph SW3.2 kmh SW 7.0 mph11.3 kmh 29.55 in1000.7 mb 0.00 in0.0 mm 0.00 in0.0 mm 0.21 in5.3 mm
06:00 PM 40.3°F4.6°C 37.3°F2.9°C 89% 2.0 mph SW3.2 kmh SW 9.0 mph14.5 kmh 29.55 in1000.7 mb 0.00 in0.0 mm 0.00 in0.0 mm 0.21 in5.3 mm
05:50 PM 40.3°F4.6°C 37.3°F2.9°C 89% 2.0 mph WSW3.2 kmh WSW 7.0 mph11.3 kmh 29.55 in1000.7 mb 0.00 in0.0 mm 0.00 in0.0 mm 0.21 in5.3 mm
05:40 PM 40.5°F4.7°C 37.2°F2.9°C 88% 3.0 mph SSW4.8 kmh SSW 7.0 mph11.3 kmh 29.55 in1000.7 mb 0.00 in0.0 mm 0.00 in0.0 mm 0.21 in5.3 mm
05:30 PM 40.6°F4.8°C 37.4°F3.0°C 88% 2.0 mph SW3.2 kmh SW 9.0 mph14.5 kmh 29.56 in1001.0 mb 0.00 in0.0 mm 0.00 in0.0 mm 0.21 in5.3 mm
05:20 PM 40.8°F4.9°C 37.5°F3.1°C 88% 2.0 mph SW3.2 kmh SW 7.0 mph11.3 kmh 29.55 in1000.7 mb 0.00 in0.0 mm 0.00 in0.0 mm 0.21 in5.3 mm
05:10 PM 41.2°F5.1°C 37.9°F3.3°C 88% 3.0 mph WSW4.8 kmh WSW 7.0 mph11.3 kmh 29.56 in1001.0 mb 0.00 in0.0 mm 0.00 in0.0 mm 0.21 in5.3 mm
05:00 PM 41.4°F5.2°C 38.1°F3.4°C 88% 3.0 mph WSW4.8 kmh WSW 8.0 mph12.9 kmh 29.56 in1001.0 mb 0.00 in0.0 mm 0.00 in0.0 mm 0.21 in5.3 mm
04:50 PM 41.5°F5.3°C 38.0°F3.3°C 87% 2.0 mph WSW3.2 kmh WSW 7.0 mph11.3 kmh 29.56 in1001.0 mb 0.00 in0.0 mm 0.00 in0.0 mm 0.21 in5.3 mm
04:40 PM 42.1°F5.6°C 38.5°F3.6°C 87% 2.0 mph SW3.2 kmh SW 6.0 mph9.7 kmh 29.56 in1001.0 mb 0.00 in0.0 mm 0.00 in0.0 mm 0.21 in5.3 mm
04:30 PM 42.3°F5.7°C 38.7°F3.7°C 87% 3.0 mph WSW4.8 kmh WSW 11.0 mph17.7 kmh 29.56 in1001.0 mb 0.00 in0.0 mm 0.00 in0.0 mm 0.21 in5.3 mm
04:20 PM 42.3°F5.7°C 38.7°F3.7°C 87% 3.0 mph WSW4.8 kmh WSW 7.0 mph11.3 kmh 29.56 in1001.0 mb 0.00 in0.0 mm 0.00 in0.0 mm 0.21 in5.3 mm
04:10 PM 42.1°F5.6°C 38.5°F3.6°C 87% 2.0 mph WSW3.2 kmh WSW 7.0 mph11.3 kmh 29.56 in1001.0 mb 0.00 in0.0 mm 0.00 in0.0 mm 0.21 in5.3 mm
04:00 PM 42.3°F5.7°C 38.4°F3.6°C 86% 3.0 mph SW4.8 kmh SW 11.0 mph17.7 kmh 29.56 in1001.0 mb 0.00 in0.0 mm 0.00 in0.0 mm 0.21 in5.3 mm
03:50 PM 42.4°F5.8°C 38.5°F3.6°C 86% 3.0 mph WSW4.8 kmh WSW 13.0 mph20.9 kmh 29.56 in1001.0 mb 0.00 in0.0 mm 0.00 in0.0 mm 0.21 in5.3 mm
03:40 PM 43.0°F6.1°C 39.4°F4.1°C 87% 3.0 mph WSW4.8 kmh WSW 8.0 mph12.9 kmh 29.57 in1001.4 mb 0.00 in0.0 mm 0.00 in0.0 mm 0.21 in5.3 mm
03:30 PM 43.3°F6.3°C 39.7°F4.3°C 87% 3.0 mph WSW4.8 kmh WSW 10.0 mph16.1 kmh 29.57 in1001.4 mb 0.00 in0.0 mm 0.00 in0.0 mm 0.21 in5.3 mm
03:20 PM 43.3°F6.3°C 39.7°F4.3°C 87% 4.0 mph WSW6.4 kmh WSW 9.0 mph14.5 kmh 29.56 in1001.0 mb 0.00 in0.0 mm 0.00 in0.0 mm 0.21 in5.3 mm
03:10 PM 43.3°F6.3°C 40.0°F4.4°C 88% 3.0 mph WSW4.8 kmh WSW 14.0 mph22.5 kmh 29.56 in1001.0 mb 0.00 in0.0 mm 0.00 in0.0 mm 0.21 in5.3 mm
03:00 PM 43.2°F6.2°C 39.6°F4.2°C 87% 4.0 mph SW6.4 kmh SW 13.0 mph20.9 kmh 29.56 in1001.0 mb 0.00 in0.0 mm 0.00 in0.0 mm 0.21 in5.3 mm
02:50 PM 43.2°F6.2°C 39.6°F4.2°C 87% 3.0 mph SW4.8 kmh SW 10.0 mph16.1 kmh 29.56 in1001.0 mb 0.00 in0.0 mm 0.00 in0.0 mm 0.21 in5.3 mm
02:40 PM 43.3°F6.3°C 40.0°F4.4°C 88% 3.0 mph WSW4.8 kmh WSW 10.0 mph16.1 kmh 29.57 in1001.4 mb 0.00 in0.0 mm 0.00 in0.0 mm 0.21 in5.3 mm
02:30 PM 43.3°F6.3°C 40.0°F4.4°C 88% 4.0 mph SW6.4 kmh SW 13.0 mph20.9 kmh 29.57 in1001.4 mb 0.00 in0.0 mm 0.00 in0.0 mm 0.21 in5.3 mm
02:20 PM 43.0°F6.1°C 40.0°F4.4°C 89% 3.0 mph WSW4.8 kmh WSW 9.0 mph14.5 kmh 29.57 in1001.4 mb 0.00 in0.0 mm 0.00 in0.0 mm 0.21 in5.3 mm
02:10 PM 42.6°F5.9°C 39.9°F4.4°C 90% 3.0 mph WSW4.8 kmh WSW 11.0 mph17.7 kmh 29.57 in1001.4 mb 0.00 in0.0 mm 0.00 in0.0 mm 0.21 in5.3 mm
02:00 PM 42.8°F6.0°C 39.8°F4.3°C 89% 4.0 mph WSW6.4 kmh WSW 10.0 mph16.1 kmh 29.57 in1001.4 mb 0.00 in0.0 mm 0.00 in0.0 mm 0.21 in5.3 mm
01:50 PM 43.3°F6.3°C 40.6°F4.8°C 90% 3.0 mph WSW4.8 kmh WSW 8.0 mph12.9 kmh 29.58 in1001.7 mb 0.00 in0.0 mm 0.00 in0.0 mm 0.21 in5.3 mm
01:40 PM 43.0°F6.1°C 40.5°F4.7°C 91% 3.0 mph SW4.8 kmh SW 11.0 mph17.7 kmh 29.57 in1001.4 mb 0.00 in0.0 mm 0.00 in0.0 mm 0.21 in5.3 mm
01:30 PM 42.6°F5.9°C 40.5°F4.7°C 92% 2.0 mph SW3.2 kmh SW 8.0 mph12.9 kmh 29.57 in1001.4 mb 0.00 in0.0 mm 0.00 in0.0 mm 0.21 in5.3 mm
01:20 PM 42.6°F5.9°C 40.5°F4.7°C 92% 3.0 mph SW4.8 kmh SW 8.0 mph12.9 kmh 29.58 in1001.7 mb 0.00 in0.0 mm 0.00 in0.0 mm 0.21 in5.3 mm
01:10 PM 42.1°F5.6°C 40.2°F4.6°C 93% 3.0 mph SW4.8 kmh SW 6.0 mph9.7 kmh 29.58 in1001.7 mb 0.00 in0.0 mm 0.00 in0.0 mm 0.21 in5.3 mm
01:00 PM 41.5°F5.3°C 39.7°F4.3°C 93% 5.0 mph WSW8.0 kmh WSW 11.0 mph17.7 kmh 29.58 in1001.7 mb 0.00 in0.0 mm 0.00 in0.0 mm 0.21 in5.3 mm
12:50 PM 41.4°F5.2°C 39.8°F4.3°C 94% 4.0 mph WSW6.4 kmh WSW 8.0 mph12.9 kmh 29.58 in1001.7 mb 0.01 in0.3 mm 0.00 in0.0 mm 0.21 in5.3 mm
12:40 PM 40.6°F4.8°C 39.0°F3.9°C 94% 3.0 mph SW4.8 kmh SW 8.0 mph12.9 kmh 29.58 in1001.7 mb 0.01 in0.3 mm 0.00 in0.0 mm 0.21 in5.3 mm
12:30 PM 40.5°F4.7°C 38.9°F3.8°C 94% 3.0 mph SW4.8 kmh SW 8.0 mph12.9 kmh 29.58 in1001.7 mb 0.01 in0.3 mm 0.00 in0.0 mm 0.21 in5.3 mm
12:20 PM 40.5°F4.7°C 38.9°F3.8°C 94% 4.0 mph SW6.4 kmh SW 10.0 mph16.1 kmh 29.59 in1002.0 mb 0.01 in0.3 mm 0.00 in0.0 mm 0.21 in5.3 mm
12:10 PM 40.6°F4.8°C 39.3°F4.1°C 95% 4.0 mph WSW6.4 kmh WSW 12.0 mph19.3 kmh 29.59 in1002.0 mb 0.01 in0.3 mm 0.00 in0.0 mm 0.21 in5.3 mm
12:00 PM 40.6°F4.8°C 39.6°F4.2°C 96% 3.0 mph WSW4.8 kmh WSW 8.0 mph12.9 kmh 29.59 in1002.0 mb 0.01 in0.3 mm 0.01 in0.3 mm 0.21 in5.3 mm
11:50 AM 39.7°F4.3°C 38.4°F3.6°C 95% 3.0 mph WSW4.8 kmh WSW 11.0 mph17.7 kmh 29.58 in1001.7 mb 0.00 in0.0 mm 0.00 in0.0 mm 0.20 in5.1 mm
11:40 AM 39.4°F4.1°C 38.1°F3.4°C 95% 3.0 mph WSW4.8 kmh WSW 13.0 mph20.9 kmh 29.58 in1001.7 mb 0.00 in0.0 mm 0.00 in0.0 mm 0.20 in5.1 mm
11:30 AM 39.4°F4.1°C 38.1°F3.4°C 95% 3.0 mph SW4.8 kmh SW 9.0 mph14.5 kmh 29.59 in1002.0 mb 0.00 in0.0 mm 0.00 in0.0 mm 0.20 in5.1 mm
11:20 AM 39.2°F4.0°C 37.9°F3.3°C 95% 4.0 mph WSW6.4 kmh WSW 7.0 mph11.3 kmh 29.59 in1002.0 mb 0.00 in0.0 mm 0.00 in0.0 mm 0.20 in5.1 mm
11:10 AM 39.2°F4.0°C 38.2°F3.4°C 96% 3.0 mph WSW4.8 kmh WSW 8.0 mph12.9 kmh 29.59 in1002.0 mb 0.00 in0.0 mm 0.00 in0.0 mm 0.20 in5.1 mm
11:00 AM 39.0°F3.9°C 38.0°F3.3°C 96% 2.0 mph WSW3.2 kmh WSW 9.0 mph14.5 kmh 29.59 in1002.0 mb 0.00 in0.0 mm 0.00 in0.0 mm 0.20 in5.1 mm
10:50 AM 38.8°F3.8°C 37.8°F3.2°C 96% 3.0 mph SW4.8 kmh SW 5.0 mph8.0 kmh 29.58 in1001.7 mb 0.00 in0.0 mm 0.00 in0.0 mm 0.20 in5.1 mm
10:40 AM 38.7°F3.7°C 37.6°F3.1°C 96% 3.0 mph S4.8 kmh S 4.0 mph6.4 kmh 29.58 in1001.7 mb 0.00 in0.0 mm 0.00 in0.0 mm 0.20 in5.1 mm
10:30 AM 38.7°F3.7°C 37.6°F3.1°C 96% 3.0 mph SSW4.8 kmh SSW 6.0 mph9.7 kmh 29.59 in1002.0 mb 0.00 in0.0 mm 0.00 in0.0 mm 0.20 in5.1 mm
10:20 AM 38.5°F3.6°C 37.4°F3.0°C 96% 3.0 mph WSW4.8 kmh WSW 6.0 mph9.7 kmh 29.58 in1001.7 mb 0.00 in0.0 mm 0.00 in0.0 mm 0.20 in5.1 mm
10:10 AM 38.3°F3.5°C 37.3°F2.9°C 96% 2.0 mph SW3.2 kmh SW 6.0 mph9.7 kmh 29.58 in1001.7 mb 0.00 in0.0 mm 0.00 in0.0 mm 0.20 in5.1 mm
10:00 AM 38.5°F3.6°C 37.4°F3.0°C 96% 2.0 mph SW3.2 kmh SW 8.0 mph12.9 kmh 29.58 in1001.7 mb 0.01 in0.3 mm 0.00 in0.0 mm 0.20 in5.1 mm
09:50 AM 38.5°F3.6°C 37.4°F3.0°C 96% 2.0 mph SW3.2 kmh SW 8.0 mph12.9 kmh 29.58 in1001.7 mb 0.06 in1.5 mm 0.00 in0.0 mm 0.20 in5.1 mm
09:40 AM 38.5°F3.6°C 37.4°F3.0°C 96% 2.0 mph WSW3.2 kmh WSW 8.0 mph12.9 kmh 29.58 in1001.7 mb 0.06 in1.5 mm 0.00 in0.0 mm 0.20 in5.1 mm
09:30 AM 38.3°F3.5°C 37.3°F2.9°C 96% 2.0 mph SW3.2 kmh SW 5.0 mph8.0 kmh 29.58 in1001.7 mb 0.06 in1.5 mm 0.00 in0.0 mm 0.20 in5.1 mm
09:20 AM 37.9°F3.3°C 36.9°F2.7°C 96% 1.0 mph SW1.6 kmh SW 5.0 mph8.0 kmh 29.58 in1001.7 mb 0.06 in1.5 mm 0.00 in0.0 mm 0.20 in5.1 mm
09:10 AM 37.6°F3.1°C 36.5°F2.5°C 96% 1.0 mph SSW1.6 kmh SSW 3.0 mph4.8 kmh 29.58 in1001.7 mb 0.06 in1.5 mm 0.00 in0.0 mm 0.20 in5.1 mm
09:00 AM 37.8°F3.2°C 36.7°F2.6°C 96% 1.0 mph WSW1.6 kmh WSW 3.0 mph4.8 kmh 29.59 in1002.0 mb 0.06 in1.5 mm 0.06 in1.5 mm 0.20 in5.1 mm
08:50 AM 37.9°F3.3°C 36.9°F2.7°C 96% 3.0 mph WNW4.8 kmh WNW 6.0 mph9.7 kmh 29.60 in1002.4 mb 0.01 in0.3 mm 0.06 in1.5 mm 0.15 in3.8 mm
08:40 AM 37.9°F3.3°C 36.9°F2.7°C 96% 2.0 mph W3.2 kmh W 6.0 mph9.7 kmh 29.59 in1002.0 mb 0.00 in0.0 mm 0.00 in0.0 mm 0.14 in3.6 mm
08:30 AM 37.8°F3.2°C 36.7°F2.6°C 96% 3.0 mph WSW4.8 kmh WSW 7.0 mph11.3 kmh 29.57 in1001.4 mb 0.01 in0.3 mm 0.00 in0.0 mm 0.14 in3.6 mm
08:20 AM 37.8°F3.2°C 36.7°F2.6°C 96% 2.0 mph SW3.2 kmh SW 6.0 mph9.7 kmh 29.57 in1001.4 mb 0.02 in0.5 mm 0.00 in0.0 mm 0.14 in3.6 mm
08:10 AM 37.6°F3.1°C 36.5°F2.5°C 96% 2.0 mph WSW3.2 kmh WSW 6.0 mph9.7 kmh 29.57 in1001.4 mb 0.02 in0.5 mm 0.00 in0.0 mm 0.14 in3.6 mm
08:00 AM 37.6°F3.1°C 36.5°F2.5°C 96% 2.0 mph WSW3.2 kmh WSW 10.0 mph16.1 kmh 29.57 in1001.4 mb 0.02 in0.5 mm 0.00 in0.0 mm 0.14 in3.6 mm
07:50 AM 37.8°F3.2°C 36.7°F2.6°C 96% 3.0 mph SW4.8 kmh SW 10.0 mph16.1 kmh 29.57 in1001.4 mb 0.02 in0.5 mm 0.00 in0.0 mm 0.14 in3.6 mm
07:40 AM 37.8°F3.2°C 36.7°F2.6°C 96% 2.0 mph SW3.2 kmh SW 7.0 mph11.3 kmh 29.57 in1001.4 mb 0.02 in0.5 mm 0.00 in0.0 mm 0.14 in3.6 mm
07:30 AM 37.9°F3.3°C 36.9°F2.7°C 96% 2.0 mph SW3.2 kmh SW 7.0 mph11.3 kmh 29.58 in1001.7 mb 0.02 in0.5 mm 0.00 in0.0 mm 0.13 in3.3 mm
07:20 AM 37.8°F3.2°C 36.7°F2.6°C 96% 2.0 mph WSW3.2 kmh WSW 9.0 mph14.5 kmh 29.58 in1001.7 mb 0.02 in0.5 mm 0.00 in0.0 mm 0.13 in3.3 mm
07:10 AM 37.8°F3.2°C 36.7°F2.6°C 96% 2.0 mph WSW3.2 kmh WSW 6.0 mph9.7 kmh 29.57 in1001.4 mb 0.02 in0.5 mm 0.00 in0.0 mm 0.13 in3.3 mm
07:00 AM 37.8°F3.2°C 36.7°F2.6°C 96% 2.0 mph SW3.2 kmh SW 6.0 mph9.7 kmh 29.57 in1001.4 mb 0.03 in0.8 mm 0.00 in0.0 mm 0.13 in3.3 mm
06:50 AM 37.8°F3.2°C 36.5°F2.5°C 95% 2.0 mph WSW3.2 kmh WSW 8.0 mph12.9 kmh 29.58 in1001.7 mb 0.03 in0.8 mm 0.00 in0.0 mm 0.12 in3.0 mm
06:40 AM 37.8°F3.2°C 36.5°F2.5°C 95% 2.0 mph WSW3.2 kmh WSW 9.0 mph14.5 kmh 29.57 in1001.4 mb 0.04 in1.0 mm 0.00 in0.0 mm 0.12 in3.0 mm
06:30 AM 37.8°F3.2°C 36.5°F2.5°C 95% 2.0 mph SW3.2 kmh SW 7.0 mph11.3 kmh 29.57 in1001.4 mb 0.04 in1.0 mm 0.00 in0.0 mm 0.12 in3.0 mm
06:20 AM 37.9°F3.3°C 36.6°F2.6°C 95% 2.0 mph WSW3.2 kmh WSW 7.0 mph11.3 kmh 29.58 in1001.7 mb 0.05 in1.3 mm 0.00 in0.0 mm 0.11 in2.8 mm
06:10 AM 37.9°F3.3°C 36.6°F2.6°C 95% 3.0 mph WSW4.8 kmh WSW 8.0 mph12.9 kmh 29.58 in1001.7 mb 0.06 in1.5 mm 0.00 in0.0 mm 0.10 in2.5 mm
06:00 AM 38.1°F3.4°C 36.8°F2.7°C 95% 2.0 mph WSW3.2 kmh WSW 7.0 mph11.3 kmh 29.58 in1001.7 mb 0.06 in1.5 mm 0.00 in0.0 mm 0.09 in2.3 mm
05:50 AM 38.1°F3.4°C 36.8°F2.7°C 95% 3.0 mph WSW4.8 kmh WSW 9.0 mph14.5 kmh 29.59 in1002.0 mb 0.06 in1.5 mm 0.06 in1.5 mm 0.09 in2.3 mm
05:40 AM 37.9°F3.3°C 36.6°F2.6°C 95% 3.0 mph SW4.8 kmh SW 9.0 mph14.5 kmh 29.59 in1002.0 mb 0.05 in1.3 mm 0.00 in0.0 mm 0.08 in2.0 mm
05:30 AM 37.9°F3.3°C 36.6°F2.6°C 95% 3.0 mph SW4.8 kmh SW 7.0 mph11.3 kmh 29.59 in1002.0 mb 0.05 in1.3 mm 0.12 in3.0 mm 0.08 in2.0 mm
05:20 AM 38.3°F3.5°C 37.0°F2.8°C 95% 4.0 mph WSW6.4 kmh WSW 9.0 mph14.5 kmh 29.59 in1002.0 mb 0.03 in0.8 mm 0.06 in1.5 mm 0.06 in1.5 mm
05:10 AM 38.8°F3.8°C 37.5°F3.1°C 95% 1.0 mph SW1.6 kmh SW 8.0 mph12.9 kmh 29.60 in1002.4 mb 0.02 in0.5 mm 0.00 in0.0 mm 0.05 in1.3 mm
05:00 AM 38.7°F3.7°C 37.4°F3.0°C 95% 2.0 mph SW3.2 kmh SW 5.0 mph8.0 kmh 29.60 in1002.4 mb 0.02 in0.5 mm 0.01 in0.3 mm 0.04 in1.0 mm
04:50 AM 38.7°F3.7°C 37.4°F3.0°C 95% 2.0 mph SW3.2 kmh SW 7.0 mph11.3 kmh 29.60 in1002.4 mb 0.01 in0.3 mm 0.00 in0.0 mm 0.03 in0.8 mm
04:40 AM 38.5°F3.6°C 37.2°F2.9°C 95% 2.0 mph WSW3.2 kmh WSW 8.0 mph12.9 kmh 29.60 in1002.4 mb 0.01 in0.3 mm 0.00 in0.0 mm 0.03 in0.8 mm
04:30 AM 38.5°F3.6°C 37.2°F2.9°C 95% 2.0 mph WSW3.2 kmh WSW 7.0 mph11.3 kmh 29.61 in1002.7 mb 0.02 in0.5 mm 0.00 in0.0 mm 0.03 in0.8 mm
04:20 AM 38.7°F3.7°C 37.1°F2.8°C 94% 3.0 mph SW4.8 kmh SW 8.0 mph12.9 kmh 29.61 in1002.7 mb 0.02 in0.5 mm 0.00 in0.0 mm 0.03 in0.8 mm
04:10 AM 38.8°F3.8°C 37.3°F2.9°C 94% 3.0 mph SW4.8 kmh SW 10.0 mph16.1 kmh 29.61 in1002.7 mb 0.02 in0.5 mm 0.06 in1.5 mm 0.03 in0.8 mm
04:00 AM 38.8°F3.8°C 37.3°F2.9°C 94% 3.0 mph SW4.8 kmh SW 9.0 mph14.5 kmh 29.61 in1002.7 mb 0.01 in0.3 mm 0.00 in0.0 mm 0.02 in0.5 mm
03:50 AM 38.8°F3.8°C 37.3°F2.9°C 94% 3.0 mph WSW4.8 kmh WSW 10.0 mph16.1 kmh 29.61 in1002.7 mb 0.01 in0.3 mm 0.00 in0.0 mm 0.02 in0.5 mm
03:40 AM 38.8°F3.8°C 37.3°F2.9°C 94% 3.0 mph WSW4.8 kmh WSW 11.0 mph17.7 kmh 29.62 in1003.0 mb 0.01 in0.3 mm 0.06 in1.5 mm 0.02 in0.5 mm
03:30 AM 38.7°F3.7°C 37.1°F2.8°C 94% 3.0 mph SW4.8 kmh SW 10.0 mph16.1 kmh 29.62 in1003.0 mb 0.00 in0.0 mm 0.00 in0.0 mm 0.02 in0.5 mm
03:20 AM 38.5°F3.6°C 36.9°F2.7°C 94% 2.0 mph SW3.2 kmh SW 6.0 mph9.7 kmh 29.63 in1003.4 mb 0.00 in0.0 mm 0.00 in0.0 mm 0.02 in0.5 mm
03:10 AM 38.5°F3.6°C 36.9°F2.7°C 94% 3.0 mph SW4.8 kmh SW 9.0 mph14.5 kmh 29.63 in1003.4 mb 0.00 in0.0 mm 0.00 in0.0 mm 0.02 in0.5 mm
03:00 AM 38.7°F3.7°C 37.1°F2.8°C 94% 4.0 mph SW6.4 kmh SW 10.0 mph16.1 kmh 29.63 in1003.4 mb 0.00 in0.0 mm 0.00 in0.0 mm 0.02 in0.5 mm
02:50 AM 39.0°F3.9°C 37.4°F3.0°C 94% 4.0 mph WSW6.4 kmh WSW 14.0 mph22.5 kmh 29.64 in1003.7 mb 0.00 in0.0 mm 0.00 in0.0 mm 0.02 in0.5 mm
02:40 AM 39.0°F3.9°C 37.4°F3.0°C 94% 3.0 mph WSW4.8 kmh WSW 9.0 mph14.5 kmh 29.64 in1003.7 mb 0.00 in0.0 mm 0.00 in0.0 mm 0.02 in0.5 mm
02:30 AM 39.0°F3.9°C 37.4°F3.0°C 94% 2.0 mph WSW3.2 kmh WSW 6.0 mph9.7 kmh 29.64 in1003.7 mb 0.00 in0.0 mm 0.00 in0.0 mm 0.02 in0.5 mm
02:20 AM 38.8°F3.8°C 37.3°F2.9°C 94% 2.0 mph SW3.2 kmh SW 8.0 mph12.9 kmh 29.64 in1003.7 mb 0.00 in0.0 mm 0.00 in0.0 mm 0.02 in0.5 mm
02:10 AM 38.8°F3.8°C 37.3°F2.9°C 94% 2.0 mph SSW3.2 kmh SSW 7.0 mph11.3 kmh 29.63 in1003.4 mb 0.00 in0.0 mm 0.00 in0.0 mm 0.02 in0.5 mm
02:00 AM 38.8°F3.8°C 37.3°F2.9°C 94% 2.0 mph SW3.2 kmh SW 7.0 mph11.3 kmh 29.64 in1003.7 mb 0.00 in0.0 mm 0.00 in0.0 mm 0.02 in0.5 mm
01:50 AM 38.8°F3.8°C 37.3°F2.9°C 94% 3.0 mph WSW4.8 kmh WSW 9.0 mph14.5 kmh 29.64 in1003.7 mb 0.00 in0.0 mm 0.00 in0.0 mm 0.02 in0.5 mm
01:40 AM 38.7°F3.7°C 37.1°F2.8°C 94% 3.0 mph WSW4.8 kmh WSW 8.0 mph12.9 kmh 29.65 in1004.1 mb 0.01 in0.3 mm 0.00 in0.0 mm 0.02 in0.5 mm
01:30 AM 38.8°F3.8°C 37.3°F2.9°C 94% 3.0 mph SW4.8 kmh SW 12.0 mph19.3 kmh 29.64 in1003.7 mb 0.01 in0.3 mm 0.00 in0.0 mm 0.02 in0.5 mm
01:20 AM 39.2°F4.0°C 37.6°F3.1°C 94% 3.0 mph WSW4.8 kmh WSW 10.0 mph16.1 kmh 29.64 in1003.7 mb 0.01 in0.3 mm 0.00 in0.0 mm 0.02 in0.5 mm
01:10 AM 39.4°F4.1°C 37.8°F3.2°C 94% 2.0 mph SW3.2 kmh SW 9.0 mph14.5 kmh 29.65 in1004.1 mb 0.02 in0.5 mm 0.00 in0.0 mm 0.02 in0.5 mm
01:00 AM 39.6°F4.2°C 38.0°F3.3°C 94% 2.0 mph SW3.2 kmh SW 7.0 mph11.3 kmh 29.65 in1004.1 mb 0.02 in0.5 mm 0.00 in0.0 mm 0.02 in0.5 mm
12:50 AM 39.7°F4.3°C 38.2°F3.4°C 94% 3.0 mph WSW4.8 kmh WSW 7.0 mph11.3 kmh 29.66 in1004.4 mb 0.02 in0.5 mm 0.06 in1.5 mm 0.02 in0.5 mm
12:40 AM 39.9°F4.4°C 38.3°F3.5°C 94% 3.0 mph SW4.8 kmh SW 7.0 mph11.3 kmh 29.66 in1004.4 mb 0.01 in0.3 mm 0.00 in0.0 mm 0.01 in0.3 mm
12:30 AM 40.3°F4.6°C 38.7°F3.7°C 94% 3.0 mph WSW4.8 kmh WSW 9.0 mph14.5 kmh 29.66 in1004.4 mb 0.01 in0.3 mm 0.00 in0.0 mm 0.01 in0.3 mm
12:20 AM 40.3°F4.6°C 38.7°F3.7°C 94% 3.0 mph WSW4.8 kmh WSW 10.0 mph16.1 kmh 29.66 in1004.4 mb 0.01 in0.3 mm 0.06 in1.5 mm 0.01 in0.3 mm
12:10 AM 40.1°F4.5°C 38.5°F3.6°C 94% 3.0 mph SW4.8 kmh SW 12.0 mph19.3 kmh 29.66 in1004.4 mb 0.00 in0.0 mm 0.00 in0.0 mm 0.00 in0.0 mm
12:00 AM 40.1°F4.5°C 38.2°F3.4°C 93% 3.0 mph WSW4.8 kmh WSW 8.0 mph12.9 kmh 29.66 in1004.4 mb 0.00 in0.0 mm 0.00 in0.0 mm 0.00 in0.0 mm